sensor_id;sensor_type;location;lat;lon;timestamp;P1;durP1;ratioP1;P2;durP2;ratioP2
61741;SDS011;47650;49.848;9.620;2024-01-30T00:00:37;33.30;;;21.40;;
61741;SDS011;47650;49.848;9.620;2024-01-30T00:03:04;28.95;;;20.80;;
61741;SDS011;47650;49.848;9.620;2024-01-30T00:05:29;35.08;;;22.95;;
61741;SDS011;47650;49.848;9.620;2024-01-30T00:07:55;32.28;;;20.80;;
61741;SDS011;47650;49.848;9.620;2024-01-30T00:10:20;35.25;;;22.50;;
61741;SDS011;47650;49.848;9.620;2024-01-30T00:12:46;39.28;;;24.48;;
61741;SDS011;47650;49.848;9.620;2024-01-30T00:15:11;31.70;;;22.60;;
61741;SDS011;47650;49.848;9.620;2024-01-30T00:17:37;28.75;;;19.08;;
61741;SDS011;47650;49.848;9.620;2024-01-30T00:20:03;33.75;;;21.48;;
61741;SDS011;47650;49.848;9.620;2024-01-30T00:22:32;33.13;;;20.95;;
61741;SDS011;47650;49.848;9.620;2024-01-30T00:24:58;32.15;;;20.95;;
61741;SDS011;47650;49.848;9.620;2024-01-30T00:27:24;29.25;;;19.77;;
61741;SDS011;47650;49.848;9.620;2024-01-30T00:29:52;25.83;;;19.25;;
61741;SDS011;47650;49.848;9.620;2024-01-30T00:32:19;28.80;;;20.42;;
61741;SDS011;47650;49.848;9.620;2024-01-30T00:34:57;29.52;;;19.83;;
61741;SDS011;47650;49.848;9.620;2024-01-30T00:37:22;28.88;;;17.70;;
61741;SDS011;47650;49.848;9.620;2024-01-30T00:39:48;32.97;;;20.88;;
61741;SDS011;47650;49.848;9.620;2024-01-30T00:42:13;28.08;;;19.13;;
61741;SDS011;47650;49.848;9.620;2024-01-30T00:44:42;32.92;;;20.50;;
61741;SDS011;47650;49.848;9.620;2024-01-30T00:47:07;30.35;;;20.30;;
61741;SDS011;47650;49.848;9.620;2024-01-30T00:49:34;25.50;;;18.00;;
61741;SDS011;47650;49.848;9.620;2024-01-30T00:51:59;25.90;;;17.73;;
61741;SDS011;47650;49.848;9.620;2024-01-30T00:54:25;28.25;;;18.70;;
61741;SDS011;47650;49.848;9.620;2024-01-30T00:56:50;24.80;;;18.17;;
61741;SDS011;47650;49.848;9.620;2024-01-30T00:59:19;28.23;;;18.23;;
61741;SDS011;47650;49.848;9.620;2024-01-30T01:01:44;27.67;;;18.58;;
61741;SDS011;47650;49.848;9.620;2024-01-30T01:04:10;33.58;;;20.95;;
61741;SDS011;47650;49.848;9.620;2024-01-30T01:06:36;26.98;;;18.52;;
61741;SDS011;47650;49.848;9.620;2024-01-30T01:09:02;24.13;;;17.63;;
61741;SDS011;47650;49.848;9.620;2024-01-30T01:11:33;27.83;;;19.50;;
61741;SDS011;47650;49.848;9.620;2024-01-30T01:14:00;28.23;;;19.05;;
61741;SDS011;47650;49.848;9.620;2024-01-30T01:16:27;29.15;;;20.00;;
61741;SDS011;47650;49.848;9.620;2024-01-30T01:18:54;26.23;;;19.10;;
61741;SDS011;47650;49.848;9.620;2024-01-30T01:21:19;30.63;;;20.85;;
61741;SDS011;47650;49.848;9.620;2024-01-30T01:23:45;29.75;;;20.48;;
61741;SDS011;47650;49.848;9.620;2024-01-30T01:26:10;32.67;;;20.80;;
61741;SDS011;47650;49.848;9.620;2024-01-30T01:28:35;29.17;;;19.95;;
61741;SDS011;47650;49.848;9.620;2024-01-30T01:31:01;34.75;;;21.42;;
61741;SDS011;47650;49.848;9.620;2024-01-30T01:33:31;28.00;;;19.02;;
61741;SDS011;47650;49.848;9.620;2024-01-30T01:35:58;32.55;;;19.88;;
61741;SDS011;47650;49.848;9.620;2024-01-30T01:38:27;25.30;;;17.70;;
61741;SDS011;47650;49.848;9.620;2024-01-30T01:40:52;34.47;;;19.95;;
61741;SDS011;47650;49.848;9.620;2024-01-30T01:43:18;26.83;;;18.58;;
61741;SDS011;47650;49.848;9.620;2024-01-30T01:45:43;33.00;;;21.02;;
61741;SDS011;47650;49.848;9.620;2024-01-30T01:48:09;29.58;;;19.23;;
61741;SDS011;47650;49.848;9.620;2024-01-30T01:50:34;30.13;;;19.83;;
61741;SDS011;47650;49.848;9.620;2024-01-30T01:53:03;27.98;;;18.92;;
61741;SDS011;47650;49.848;9.620;2024-01-30T01:55:30;32.97;;;20.75;;
61741;SDS011;47650;49.848;9.620;2024-01-30T01:57:58;31.77;;;20.05;;
61741;SDS011;47650;49.848;9.620;2024-01-30T02:00:24;37.78;;;21.88;;
61741;SDS011;47650;49.848;9.620;2024-01-30T02:02:50;34.33;;;21.33;;
61741;SDS011;47650;49.848;9.620;2024-01-30T02:05:19;30.48;;;19.23;;
61741;SDS011;47650;49.848;9.620;2024-01-30T02:07:51;29.48;;;19.30;;
61741;SDS011;47650;49.848;9.620;2024-01-30T02:10:17;30.73;;;19.63;;
61741;SDS011;47650;49.848;9.620;2024-01-30T02:12:43;30.00;;;19.05;;
61741;SDS011;47650;49.848;9.620;2024-01-30T02:15:13;31.42;;;20.10;;
61741;SDS011;47650;49.848;9.620;2024-01-30T02:17:39;29.33;;;19.10;;
61741;SDS011;47650;49.848;9.620;2024-01-30T02:20:04;29.05;;;19.50;;
61741;SDS011;47650;49.848;9.620;2024-01-30T02:22:31;26.48;;;19.10;;
61741;SDS011;47650;49.848;9.620;2024-01-30T02:24:59;25.50;;;18.17;;
61741;SDS011;47650;49.848;9.620;2024-01-30T02:27:25;25.65;;;18.05;;
61741;SDS011;47650;49.848;9.620;2024-01-30T02:29:51;30.55;;;19.25;;
61741;SDS011;47650;49.848;9.620;2024-01-30T02:35:39;27.33;;;18.23;;
61741;SDS011;47650;49.848;9.620;2024-01-30T02:38:04;28.33;;;17.00;;
61741;SDS011;47650;49.848;9.620;2024-01-30T02:40:30;29.15;;;18.83;;
61741;SDS011;47650;49.848;9.620;2024-01-30T02:42:56;27.80;;;17.60;;
61741;SDS011;47650;49.848;9.620;2024-01-30T02:45:25;25.25;;;16.88;;
61741;SDS011;47650;49.848;9.620;2024-01-30T02:47:51;24.35;;;18.10;;
61741;SDS011;47650;49.848;9.620;2024-01-30T02:50:16;28.00;;;19.00;;
61741;SDS011;47650;49.848;9.620;2024-01-30T02:52:43;29.30;;;20.23;;
61741;SDS011;47650;49.848;9.620;2024-01-30T02:55:11;30.33;;;20.08;;
61741;SDS011;47650;49.848;9.620;2024-01-30T02:57:37;31.33;;;20.55;;
61741;SDS011;47650;49.848;9.620;2024-01-30T03:00:03;28.98;;;20.25;;
61741;SDS011;47650;49.848;9.620;2024-01-30T03:02:31;30.73;;;19.90;;
61741;SDS011;47650;49.848;9.620;2024-01-30T03:04:57;30.13;;;19.88;;
61741;SDS011;47650;49.848;9.620;2024-01-30T03:07:22;29.05;;;19.50;;
61741;SDS011;47650;49.848;9.620;2024-01-30T03:09:47;29.92;;;19.05;;
61741;SDS011;47650;49.848;9.620;2024-01-30T03:12:14;34.47;;;24.17;;
61741;SDS011;47650;49.848;9.620;2024-01-30T03:14:39;29.63;;;20.67;;
61741;SDS011;47650;49.848;9.620;2024-01-30T03:17:05;28.17;;;18.88;;
61741;SDS011;47650;49.848;9.620;2024-01-30T03:19:30;32.22;;;20.17;;
61741;SDS011;47650;49.848;9.620;2024-01-30T03:21:55;30.85;;;19.27;;
61741;SDS011;47650;49.848;9.620;2024-01-30T03:24:20;31.88;;;21.85;;
61741;SDS011;47650;49.848;9.620;2024-01-30T03:26:47;26.48;;;18.73;;
61741;SDS011;47650;49.848;9.620;2024-01-30T03:29:19;28.05;;;19.65;;
61741;SDS011;47650;49.848;9.620;2024-01-30T03:31:44;26.92;;;19.20;;
61741;SDS011;47650;49.848;9.620;2024-01-30T03:34:12;26.80;;;19.20;;
61741;SDS011;47650;49.848;9.620;2024-01-30T03:36:37;27.77;;;19.05;;
61741;SDS011;47650;49.848;9.620;2024-01-30T03:39:02;27.70;;;18.63;;
61741;SDS011;47650;49.848;9.620;2024-01-30T03:41:29;29.77;;;19.42;;
61741;SDS011;47650;49.848;9.620;2024-01-30T03:44:00;27.98;;;20.38;;
61741;SDS011;47650;49.848;9.620;2024-01-30T03:46:25;27.65;;;19.35;;
61741;SDS011;47650;49.848;9.620;2024-01-30T03:48:51;30.02;;;21.33;;
61741;SDS011;47650;49.848;9.620;2024-01-30T03:51:17;29.88;;;20.38;;
61741;SDS011;47650;49.848;9.620;2024-01-30T03:53:44;27.90;;;19.42;;
61741;SDS011;47650;49.848;9.620;2024-01-30T03:56:14;29.92;;;19.77;;
61741;SDS011;47650;49.848;9.620;2024-01-30T03:58:40;28.55;;;19.63;;
61741;SDS011;47650;49.848;9.620;2024-01-30T04:01:07;30.08;;;20.20;;
61741;SDS011;47650;49.848;9.620;2024-01-30T04:03:32;27.67;;;19.20;;
61741;SDS011;47650;49.848;9.620;2024-01-30T04:05:58;25.70;;;18.02;;
61741;SDS011;47650;49.848;9.620;2024-01-30T04:08:24;26.25;;;18.00;;
61741;SDS011;47650;49.848;9.620;2024-01-30T04:10:50;27.77;;;19.52;;
61741;SDS011;47650;49.848;9.620;2024-01-30T04:13:17;26.83;;;18.35;;
61741;SDS011;47650;49.848;9.620;2024-01-30T04:15:42;27.40;;;19.50;;
61741;SDS011;47650;49.848;9.620;2024-01-30T04:18:12;26.48;;;19.33;;
61741;SDS011;47650;49.848;9.620;2024-01-30T04:20:38;29.73;;;20.63;;
61741;SDS011;47650;49.848;9.620;2024-01-30T04:23:04;33.92;;;22.27;;
61741;SDS011;47650;49.848;9.620;2024-01-30T04:25:29;30.48;;;21.40;;
61741;SDS011;47650;49.848;9.620;2024-01-30T04:27:55;28.77;;;18.85;;
61741;SDS011;47650;49.848;9.620;2024-01-30T04:30:21;30.38;;;20.45;;
61741;SDS011;47650;49.848;9.620;2024-01-30T04:32:47;25.95;;;17.73;;
61741;SDS011;47650;49.848;9.620;2024-01-30T04:35:14;24.40;;;17.55;;
61741;SDS011;47650;49.848;9.620;2024-01-30T04:37:41;24.70;;;16.48;;
61741;SDS011;47650;49.848;9.620;2024-01-30T04:40:06;27.38;;;19.17;;
61741;SDS011;47650;49.848;9.620;2024-01-30T04:42:32;23.83;;;16.90;;
61741;SDS011;47650;49.848;9.620;2024-01-30T04:44:58;23.13;;;16.33;;
61741;SDS011;47650;49.848;9.620;2024-01-30T04:47:23;26.40;;;15.75;;
61741;SDS011;47650;49.848;9.620;2024-01-30T04:49:53;24.40;;;17.02;;
61741;SDS011;47650;49.848;9.620;2024-01-30T04:52:18;26.77;;;17.95;;
61741;SDS011;47650;49.848;9.620;2024-01-30T04:54:43;28.90;;;19.67;;
61741;SDS011;47650;49.848;9.620;2024-01-30T04:57:09;24.15;;;17.48;;
61741;SDS011;47650;49.848;9.620;2024-01-30T04:59:37;28.58;;;17.60;;
61741;SDS011;47650;49.848;9.620;2024-01-30T05:02:02;26.42;;;17.95;;
61741;SDS011;47650;49.848;9.620;2024-01-30T05:04:27;23.35;;;16.92;;
61741;SDS011;47650;49.848;9.620;2024-01-30T05:06:53;21.40;;;16.08;;
61741;SDS011;47650;49.848;9.620;2024-01-30T05:09:18;28.13;;;17.08;;
61741;SDS011;47650;49.848;9.620;2024-01-30T05:11:45;27.13;;;18.95;;
61741;SDS011;47650;49.848;9.620;2024-01-30T05:14:10;23.98;;;16.88;;
61741;SDS011;47650;49.848;9.620;2024-01-30T05:16:36;24.13;;;16.63;;
61741;SDS011;47650;49.848;9.620;2024-01-30T05:19:02;26.00;;;18.83;;
61741;SDS011;47650;49.848;9.620;2024-01-30T05:21:27;30.05;;;17.83;;
61741;SDS011;47650;49.848;9.620;2024-01-30T05:23:52;26.98;;;17.25;;
61741;SDS011;47650;49.848;9.620;2024-01-30T05:26:18;25.25;;;17.52;;
61741;SDS011;47650;49.848;9.620;2024-01-30T05:28:44;24.02;;;17.15;;
61741;SDS011;47650;49.848;9.620;2024-01-30T05:31:12;27.05;;;17.40;;
61741;SDS011;47650;49.848;9.620;2024-01-30T05:33:37;27.38;;;17.63;;
61741;SDS011;47650;49.848;9.620;2024-01-30T05:36:02;28.00;;;18.15;;
61741;SDS011;47650;49.848;9.620;2024-01-30T05:38:28;25.00;;;18.60;;
61741;SDS011;47650;49.848;9.620;2024-01-30T05:40:53;26.25;;;17.35;;
61741;SDS011;47650;49.848;9.620;2024-01-30T05:43:20;28.70;;;19.10;;
61741;SDS011;47650;49.848;9.620;2024-01-30T05:45:45;27.17;;;18.13;;
61741;SDS011;47650;49.848;9.620;2024-01-30T05:48:11;29.65;;;19.80;;
61741;SDS011;47650;49.848;9.620;2024-01-30T05:50:36;34.17;;;21.58;;
61741;SDS011;47650;49.848;9.620;2024-01-30T05:53:02;29.92;;;19.17;;
61741;SDS011;47650;49.848;9.620;2024-01-30T05:55:27;26.13;;;18.65;;
61741;SDS011;47650;49.848;9.620;2024-01-30T05:57:52;35.83;;;23.38;;
61741;SDS011;47650;49.848;9.620;2024-01-30T06:00:18;43.17;;;27.63;;
61741;SDS011;47650;49.848;9.620;2024-01-30T06:02:43;42.67;;;29.00;;
61741;SDS011;47650;49.848;9.620;2024-01-30T06:05:09;36.67;;;25.52;;
61741;SDS011;47650;49.848;9.620;2024-01-30T06:07:34;29.70;;;21.73;;
61741;SDS011;47650;49.848;9.620;2024-01-30T06:10:00;23.92;;;17.80;;
61741;SDS011;47650;49.848;9.620;2024-01-30T06:12:32;29.80;;;20.42;;
61741;SDS011;47650;49.848;9.620;2024-01-30T06:14:57;30.73;;;19.48;;
61741;SDS011;47650;49.848;9.620;2024-01-30T06:17:23;29.05;;;21.13;;
61741;SDS011;47650;49.848;9.620;2024-01-30T06:19:49;31.92;;;21.05;;
61741;SDS011;47650;49.848;9.620;2024-01-30T06:22:15;31.42;;;20.95;;
61741;SDS011;47650;49.848;9.620;2024-01-30T06:24:43;33.25;;;21.85;;
61741;SDS011;47650;49.848;9.620;2024-01-30T06:27:11;29.70;;;20.52;;
61741;SDS011;47650;49.848;9.620;2024-01-30T06:29:37;26.13;;;18.85;;
61741;SDS011;47650;49.848;9.620;2024-01-30T06:32:03;32.38;;;20.52;;
61741;SDS011;47650;49.848;9.620;2024-01-30T06:34:32;29.35;;;19.92;;
61741;SDS011;47650;49.848;9.620;2024-01-30T06:36:57;33.08;;;20.92;;
61741;SDS011;47650;49.848;9.620;2024-01-30T06:39:22;31.60;;;20.52;;
61741;SDS011;47650;49.848;9.620;2024-01-30T06:41:49;30.30;;;19.02;;
61741;SDS011;47650;49.848;9.620;2024-01-30T06:44:21;25.25;;;18.55;;
61741;SDS011;47650;49.848;9.620;2024-01-30T06:46:46;25.48;;;17.73;;
61741;SDS011;47650;49.848;9.620;2024-01-30T06:49:11;27.70;;;17.88;;
61741;SDS011;47650;49.848;9.620;2024-01-30T06:51:37;29.13;;;19.83;;
61741;SDS011;47650;49.848;9.620;2024-01-30T06:54:02;31.63;;;20.35;;
61741;SDS011;47650;49.848;9.620;2024-01-30T06:56:28;26.40;;;17.55;;
61741;SDS011;47650;49.848;9.620;2024-01-30T06:58:53;30.38;;;19.98;;
61741;SDS011;47650;49.848;9.620;2024-01-30T07:01:20;25.30;;;17.77;;
61741;SDS011;47650;49.848;9.620;2024-01-30T07:03:48;25.92;;;17.70;;
61741;SDS011;47650;49.848;9.620;2024-01-30T07:06:13;28.80;;;19.15;;
61741;SDS011;47650;49.848;9.620;2024-01-30T07:08:38;28.48;;;18.02;;
61741;SDS011;47650;49.848;9.620;2024-01-30T07:11:05;30.50;;;19.20;;
61741;SDS011;47650;49.848;9.620;2024-01-30T07:13:31;28.52;;;19.98;;
61741;SDS011;47650;49.848;9.620;2024-01-30T07:15:57;27.17;;;19.58;;
61741;SDS011;47650;49.848;9.620;2024-01-30T07:18:22;27.02;;;18.15;;
61741;SDS011;47650;49.848;9.620;2024-01-30T07:20:47;25.85;;;17.08;;
61741;SDS011;47650;49.848;9.620;2024-01-30T07:23:14;23.95;;;17.58;;
61741;SDS011;47650;49.848;9.620;2024-01-30T07:25:41;26.90;;;16.92;;
61741;SDS011;47650;49.848;9.620;2024-01-30T07:28:07;25.20;;;16.60;;
61741;SDS011;47650;49.848;9.620;2024-01-30T07:30:37;31.85;;;19.83;;
61741;SDS011;47650;49.848;9.620;2024-01-30T07:33:02;31.85;;;19.80;;
61741;SDS011;47650;49.848;9.620;2024-01-30T07:35:28;78.82;;;44.88;;
61741;SDS011;47650;49.848;9.620;2024-01-30T07:37:54;72.57;;;44.38;;
61741;SDS011;47650;49.848;9.620;2024-01-30T07:40:20;71.25;;;40.35;;
61741;SDS011;47650;49.848;9.620;2024-01-30T07:42:45;59.75;;;36.17;;
61741;SDS011;47650;49.848;9.620;2024-01-30T07:45:11;50.63;;;32.08;;
61741;SDS011;47650;49.848;9.620;2024-01-30T07:47:37;43.40;;;30.73;;
61741;SDS011;47650;49.848;9.620;2024-01-30T07:50:03;43.72;;;29.95;;
61741;SDS011;47650;49.848;9.620;2024-01-30T07:52:28;42.92;;;30.45;;
61741;SDS011;47650;49.848;9.620;2024-01-30T07:54:54;32.92;;;24.42;;
61741;SDS011;47650;49.848;9.620;2024-01-30T07:57:20;33.30;;;23.48;;
61741;SDS011;47650;49.848;9.620;2024-01-30T07:59:45;32.00;;;23.73;;
61741;SDS011;47650;49.848;9.620;2024-01-30T08:02:13;22.35;;;18.08;;
61741;SDS011;47650;49.848;9.620;2024-01-30T08:04:39;25.35;;;18.98;;
61741;SDS011;47650;49.848;9.620;2024-01-30T08:07:04;20.02;;;14.43;;
61741;SDS011;47650;49.848;9.620;2024-01-30T08:09:30;22.45;;;16.17;;
61741;SDS011;47650;49.848;9.620;2024-01-30T08:11:55;20.00;;;15.68;;
61741;SDS011;47650;49.848;9.620;2024-01-30T08:14:20;22.42;;;16.27;;
61741;SDS011;47650;49.848;9.620;2024-01-30T08:16:47;23.55;;;15.93;;
61741;SDS011;47650;49.848;9.620;2024-01-30T08:19:12;23.92;;;16.85;;
61741;SDS011;47650;49.848;9.620;2024-01-30T08:21:39;23.77;;;15.80;;
61741;SDS011;47650;49.848;9.620;2024-01-30T08:24:05;22.27;;;16.67;;
61741;SDS011;47650;49.848;9.620;2024-01-30T08:26:32;20.45;;;15.38;;
61741;SDS011;47650;49.848;9.620;2024-01-30T08:28:58;22.90;;;17.00;;
61741;SDS011;47650;49.848;9.620;2024-01-30T08:31:24;23.92;;;14.32;;
61741;SDS011;47650;49.848;9.620;2024-01-30T08:33:51;17.73;;;14.20;;
61741;SDS011;47650;49.848;9.620;2024-01-30T08:36:17;21.13;;;15.95;;
61741;SDS011;47650;49.848;9.620;2024-01-30T08:38:47;122.45;;;22.02;;
61741;SDS011;47650;49.848;9.620;2024-01-30T08:41:15;24.58;;;17.23;;
61741;SDS011;47650;49.848;9.620;2024-01-30T08:43:40;19.13;;;14.98;;
61741;SDS011;47650;49.848;9.620;2024-01-30T08:46:06;18.70;;;14.45;;
61741;SDS011;47650;49.848;9.620;2024-01-30T08:48:32;17.58;;;14.48;;
61741;SDS011;47650;49.848;9.620;2024-01-30T08:50:57;19.45;;;14.65;;
61741;SDS011;47650;49.848;9.620;2024-01-30T08:53:22;18.83;;;14.68;;
61741;SDS011;47650;49.848;9.620;2024-01-30T08:55:48;21.17;;;16.13;;
61741;SDS011;47650;49.848;9.620;2024-01-30T08:58:13;22.40;;;16.77;;
61741;SDS011;47650;49.848;9.620;2024-01-30T09:00:40;26.40;;;18.35;;
61741;SDS011;47650;49.848;9.620;2024-01-30T09:03:07;20.92;;;16.55;;
61741;SDS011;47650;49.848;9.620;2024-01-30T09:05:32;17.83;;;15.02;;
61741;SDS011;47650;49.848;9.620;2024-01-30T09:07:58;21.45;;;15.98;;
61741;SDS011;47650;49.848;9.620;2024-01-30T09:10:45;22.10;;;15.65;;
61741;SDS011;47650;49.848;9.620;2024-01-30T09:13:11;21.98;;;15.60;;
61741;SDS011;47650;49.848;9.620;2024-01-30T09:15:36;17.67;;;14.13;;
61741;SDS011;47650;49.848;9.620;2024-01-30T09:18:01;19.77;;;13.30;;
61741;SDS011;47650;49.848;9.620;2024-01-30T09:20:27;20.27;;;14.43;;
61741;SDS011;47650;49.848;9.620;2024-01-30T09:22:52;16.65;;;13.95;;
61741;SDS011;47650;49.848;9.620;2024-01-30T09:25:17;18.48;;;13.45;;
61741;SDS011;47650;49.848;9.620;2024-01-30T09:27:59;16.58;;;13.52;;
61741;SDS011;47650;49.848;9.620;2024-01-30T09:30:24;16.48;;;13.77;;
61741;SDS011;47650;49.848;9.620;2024-01-30T09:32:51;17.45;;;13.50;;
61741;SDS011;47650;49.848;9.620;2024-01-30T09:35:16;19.73;;;13.45;;
61741;SDS011;47650;49.848;9.620;2024-01-30T09:37:41;17.10;;;12.45;;
61741;SDS011;47650;49.848;9.620;2024-01-30T09:40:07;13.80;;;12.27;;
61741;SDS011;47650;49.848;9.620;2024-01-30T09:45:02;13.45;;;11.02;;
61741;SDS011;47650;49.848;9.620;2024-01-30T09:47:31;14.45;;;12.18;;
61741;SDS011;47650;49.848;9.620;2024-01-30T09:49:57;13.23;;;11.38;;
61741;SDS011;47650;49.848;9.620;2024-01-30T09:52:24;19.35;;;17.35;;
61741;SDS011;47650;49.848;9.620;2024-01-30T09:54:50;13.57;;;11.43;;
61741;SDS011;47650;49.848;9.620;2024-01-30T09:57:17;17.98;;;16.17;;
61741;SDS011;47650;49.848;9.620;2024-01-30T09:59:42;17.33;;;15.20;;
61741;SDS011;47650;49.848;9.620;2024-01-30T10:02:09;14.60;;;12.38;;
61741;SDS011;47650;49.848;9.620;2024-01-30T10:04:35;12.60;;;10.43;;
61741;SDS011;47650;49.848;9.620;2024-01-30T10:07:01;14.38;;;10.23;;
61741;SDS011;47650;49.848;9.620;2024-01-30T10:09:27;11.77;;;9.52;;
61741;SDS011;47650;49.848;9.620;2024-01-30T10:11:52;13.82;;;10.80;;
61741;SDS011;47650;49.848;9.620;2024-01-30T10:14:18;11.75;;;10.27;;
61741;SDS011;47650;49.848;9.620;2024-01-30T10:16:45;11.68;;;9.73;;
61741;SDS011;47650;49.848;9.620;2024-01-30T10:19:11;11.23;;;9.10;;
61741;SDS011;47650;49.848;9.620;2024-01-30T10:21:37;11.77;;;9.27;;
61741;SDS011;47650;49.848;9.620;2024-01-30T10:24:03;11.50;;;10.30;;
61741;SDS011;47650;49.848;9.620;2024-01-30T10:26:30;12.45;;;10.20;;
61741;SDS011;47650;49.848;9.620;2024-01-30T10:28:59;12.30;;;10.27;;
61741;SDS011;47650;49.848;9.620;2024-01-30T10:31:27;12.35;;;9.77;;
61741;SDS011;47650;49.848;9.620;2024-01-30T10:33:54;13.65;;;10.40;;
61741;SDS011;47650;49.848;9.620;2024-01-30T10:36:19;12.82;;;10.07;;
61741;SDS011;47650;49.848;9.620;2024-01-30T10:38:55;10.85;;;9.68;;
61741;SDS011;47650;49.848;9.620;2024-01-30T10:41:26;13.38;;;10.38;;
61741;SDS011;47650;49.848;9.620;2024-01-30T10:44:10;11.95;;;10.25;;
61741;SDS011;47650;49.848;9.620;2024-01-30T10:46:37;13.35;;;10.93;;
61741;SDS011;47650;49.848;9.620;2024-01-30T10:49:03;14.25;;;11.75;;
61741;SDS011;47650;49.848;9.620;2024-01-30T10:51:31;13.60;;;11.73;;
61741;SDS011;47650;49.848;9.620;2024-01-30T10:53:56;12.45;;;11.15;;
61741;SDS011;47650;49.848;9.620;2024-01-30T10:56:24;13.98;;;12.48;;
61741;SDS011;47650;49.848;9.620;2024-01-30T10:58:50;13.13;;;10.93;;
61741;SDS011;47650;49.848;9.620;2024-01-30T11:01:20;14.55;;;12.00;;
61741;SDS011;47650;49.848;9.620;2024-01-30T11:03:52;12.05;;;10.40;;
61741;SDS011;47650;49.848;9.620;2024-01-30T11:06:21;14.95;;;11.40;;
61741;SDS011;47650;49.848;9.620;2024-01-30T11:08:59;12.10;;;10.43;;
61741;SDS011;47650;49.848;9.620;2024-01-30T11:11:26;12.30;;;9.52;;
61741;SDS011;47650;49.848;9.620;2024-01-30T11:13:51;12.98;;;10.10;;
61741;SDS011;47650;49.848;9.620;2024-01-30T11:16:21;11.43;;;10.23;;
61741;SDS011;47650;49.848;9.620;2024-01-30T11:18:50;10.93;;;9.80;;
61741;SDS011;47650;49.848;9.620;2024-01-30T11:21:19;13.90;;;10.82;;
61741;SDS011;47650;49.848;9.620;2024-01-30T11:23:44;11.35;;;9.68;;
61741;SDS011;47650;49.848;9.620;2024-01-30T11:26:12;11.32;;;9.98;;
61741;SDS011;47650;49.848;9.620;2024-01-30T11:28:37;11.73;;;9.75;;
61741;SDS011;47650;49.848;9.620;2024-01-30T11:31:06;14.32;;;10.73;;
61741;SDS011;47650;49.848;9.620;2024-01-30T11:33:32;12.25;;;10.30;;
61741;SDS011;47650;49.848;9.620;2024-01-30T11:36:00;12.30;;;10.13;;
61741;SDS011;47650;49.848;9.620;2024-01-30T11:38:26;13.75;;;10.73;;
61741;SDS011;47650;49.848;9.620;2024-01-30T11:40:54;11.57;;;10.38;;
61741;SDS011;47650;49.848;9.620;2024-01-30T11:43:23;12.57;;;10.45;;
61741;SDS011;47650;49.848;9.620;2024-01-30T11:45:49;14.85;;;12.20;;
61741;SDS011;47650;49.848;9.620;2024-01-30T11:48:14;14.50;;;13.00;;
61741;SDS011;47650;49.848;9.620;2024-01-30T11:50:40;12.10;;;10.82;;
61741;SDS011;47650;49.848;9.620;2024-01-30T11:53:05;12.23;;;10.93;;
61741;SDS011;47650;49.848;9.620;2024-01-30T11:55:31;13.93;;;11.10;;
61741;SDS011;47650;49.848;9.620;2024-01-30T11:57:59;13.68;;;11.55;;
61741;SDS011;47650;49.848;9.620;2024-01-30T12:00:26;12.15;;;10.65;;
61741;SDS011;47650;49.848;9.620;2024-01-30T12:02:52;11.48;;;10.27;;
61741;SDS011;47650;49.848;9.620;2024-01-30T12:05:24;11.43;;;10.23;;
61741;SDS011;47650;49.848;9.620;2024-01-30T12:07:50;12.07;;;10.07;;
61741;SDS011;47650;49.848;9.620;2024-01-30T12:10:16;11.82;;;9.70;;
61741;SDS011;47650;49.848;9.620;2024-01-30T12:12:43;12.63;;;9.55;;
61741;SDS011;47650;49.848;9.620;2024-01-30T12:15:11;11.82;;;10.02;;
61741;SDS011;47650;49.848;9.620;2024-01-30T12:17:37;11.43;;;9.52;;
61741;SDS011;47650;49.848;9.620;2024-01-30T12:20:09;11.07;;;9.55;;
61741;SDS011;47650;49.848;9.620;2024-01-30T12:22:42;10.55;;;9.45;;
61741;SDS011;47650;49.848;9.620;2024-01-30T12:25:09;12.15;;;9.75;;
61741;SDS011;47650;49.848;9.620;2024-01-30T12:27:42;11.27;;;9.55;;
61741;SDS011;47650;49.848;9.620;2024-01-30T12:30:11;13.48;;;9.40;;
61741;SDS011;47650;49.848;9.620;2024-01-30T12:32:41;10.75;;;9.70;;
61741;SDS011;47650;49.848;9.620;2024-01-30T12:35:15;11.40;;;10.20;;
61741;SDS011;47650;49.848;9.620;2024-01-30T12:37:43;12.35;;;10.60;;
61741;SDS011;47650;49.848;9.620;2024-01-30T12:40:09;11.80;;;10.55;;
61741;SDS011;47650;49.848;9.620;2024-01-30T12:42:36;12.57;;;10.23;;
61741;SDS011;47650;49.848;9.620;2024-01-30T12:45:03;12.27;;;10.25;;
61741;SDS011;47650;49.848;9.620;2024-01-30T12:47:29;12.55;;;10.73;;
61741;SDS011;47650;49.848;9.620;2024-01-30T12:49:54;12.35;;;9.48;;
61741;SDS011;47650;49.848;9.620;2024-01-30T12:52:20;10.82;;;9.70;;
61741;SDS011;47650;49.848;9.620;2024-01-30T12:54:47;13.45;;;11.48;;
61741;SDS011;47650;49.848;9.620;2024-01-30T12:57:13;12.23;;;10.93;;
61741;SDS011;47650;49.848;9.620;2024-01-30T12:59:39;12.25;;;10.95;;
61741;SDS011;47650;49.848;9.620;2024-01-30T13:02:04;12.75;;;9.68;;
61741;SDS011;47650;49.848;9.620;2024-01-30T13:04:31;11.75;;;10.13;;
61741;SDS011;47650;49.848;9.620;2024-01-30T13:06:58;13.88;;;10.77;;
61741;SDS011;47650;49.848;9.620;2024-01-30T13:09:25;12.80;;;11.38;;
61741;SDS011;47650;49.848;9.620;2024-01-30T13:11:51;13.50;;;10.48;;
61741;SDS011;47650;49.848;9.620;2024-01-30T13:14:18;11.35;;;9.75;;
61741;SDS011;47650;49.848;9.620;2024-01-30T13:16:44;11.75;;;10.52;;
61741;SDS011;47650;49.848;9.620;2024-01-30T13:19:09;12.75;;;9.88;;
61741;SDS011;47650;49.848;9.620;2024-01-30T13:21:34;12.18;;;10.52;;
61741;SDS011;47650;49.848;9.620;2024-01-30T13:24:02;12.68;;;10.23;;
61741;SDS011;47650;49.848;9.620;2024-01-30T13:26:28;10.07;;;9.00;;
61741;SDS011;47650;49.848;9.620;2024-01-30T13:28:53;10.77;;;9.70;;
61741;SDS011;47650;49.848;9.620;2024-01-30T13:31:18;10.20;;;8.82;;
61741;SDS011;47650;49.848;9.620;2024-01-30T13:33:44;14.32;;;9.35;;
61741;SDS011;47650;49.848;9.620;2024-01-30T13:36:10;10.63;;;9.63;;
61741;SDS011;47650;49.848;9.620;2024-01-30T13:38:36;10.25;;;9.25;;
61741;SDS011;47650;49.848;9.620;2024-01-30T13:41:02;11.63;;;10.00;;
61741;SDS011;47650;49.848;9.620;2024-01-30T13:43:27;13.63;;;11.18;;
61741;SDS011;47650;49.848;9.620;2024-01-30T13:45:55;13.70;;;10.70;;
61741;SDS011;47650;49.848;9.620;2024-01-30T13:48:20;13.68;;;10.13;;
61741;SDS011;47650;49.848;9.620;2024-01-30T13:50:46;12.52;;;11.27;;
61741;SDS011;47650;49.848;9.620;2024-01-30T13:53:14;17.08;;;12.07;;
61741;SDS011;47650;49.848;9.620;2024-01-30T13:55:40;16.45;;;11.70;;
61741;SDS011;47650;49.848;9.620;2024-01-30T13:58:11;15.02;;;11.45;;
61741;SDS011;47650;49.848;9.620;2024-01-30T14:00:36;15.93;;;11.52;;
61741;SDS011;47650;49.848;9.620;2024-01-30T14:03:02;14.98;;;11.80;;
61741;SDS011;47650;49.848;9.620;2024-01-30T14:05:28;13.73;;;11.48;;
61741;SDS011;47650;49.848;9.620;2024-01-30T14:07:53;14.73;;;11.80;;
61741;SDS011;47650;49.848;9.620;2024-01-30T14:10:19;14.25;;;12.43;;
61741;SDS011;47650;49.848;9.620;2024-01-30T14:12:52;18.67;;;12.88;;
61741;SDS011;47650;49.848;9.620;2024-01-30T14:15:18;15.00;;;11.65;;
61741;SDS011;47650;49.848;9.620;2024-01-30T14:17:43;15.20;;;12.68;;
61741;SDS011;47650;49.848;9.620;2024-01-30T14:20:10;16.10;;;12.82;;
61741;SDS011;47650;49.848;9.620;2024-01-30T14:22:36;14.77;;;12.52;;
61741;SDS011;47650;49.848;9.620;2024-01-30T14:25:02;14.93;;;12.70;;